Thursday, August 25, 2016
11:33 UTC
  |  Log In   |  Register Free
Airport Search:

Comanche County-City Airport
(KMKN)

Comanche County-City Airport Diagram
No Airport Diagram Available

FAA data valid effective Jul 21 2016 - Sep 15 2016 (unless otherwise noted).

 
 
 
 
 
 
 
 
 
 
 
 
 
 
Current Aviation Weather for KMKN

Weather Summary


The most recent METAR observation for MKN was updated at: 12:55 UTC
METAR for MKN is not available. Closest METAR is for
METAR

METAR KMKN 251115Z 20005KT 10SM CLR 22/22 A3008 RMK AO2 T02180216

METAR KMKN 251055Z 20005KT 10SM CLR 22/21 A3008 RMK AO2 T02170213

METAR KMKN 251035Z 20006KT 10SM CLR 22/21 A3008 RMK AO2 T02220209

METAR KMKN 251015Z 21008KT 10SM CLR 23/21 A3008 RMK AO2 T02300211

METAR KMKN 250955Z 20010KT 10SM CLR 23/21 A3007 RMK AO2 T02300211

METAR KMKN 250935Z 20011KT 10SM CLR 23/21 A3008 RMK AO2 T02330211

METAR KMKN 250915Z 19010G15KT 10SM CLR 24/21 A3008 RMK AO2 T02350212

METAR KMKN 250855Z 19009KT 10SM CLR 24/21 A3009 RMK AO2 T02380213

METAR KMKN 250835Z 21007KT 10SM CLR 24/21 A3009 RMK AO2 T02420214

METAR KBWD 251115Z 14004KT 10SM SCT019 BKN041 OVC047 20/20 A3009 RMK AO2

METAR KMNZ 251115Z 20005KT 7SM CLR 21/21 A3009 RMK AO2 T02130213

METAR KSEP 251115Z 00000KT 5SM CLR 22/20 A3011 RMK AO2 T02150200

TAF for MKN is not available.
TAF
Sorry we do not have any TAF information for MKN
GlobalAir.com is loading additional information.
 Current Weather at MKN
73.0 F° (23.0 C°)

South winds at 11.5 mph
Pressure:
30.07 in
Humidity:
89%
Wind:
South at 11.5 mph
Dew Point:
70.0 F° (21.1 C°)
Visibility:
10.00 mi
MKN NOAA Radar




Find All Airport Services Find A Hotel Find A Rental Car Find A Golf Course Find A Restaurant $100 Hamburger



Airport Weather Forecast for KMKN

Translated METAR for KMKN (1115 UTC)
METAR:
KMKN 251115Z AUTO Comanche County City, Comanche, TX (KMKN). Aug 25, 1115Z, Automated. Wind from 200° at 5 knots, 10 statute miles visibility, Clear Skies, Temperature 22°C, Dewpoint 22°C, Altimeter is 30.08. Remarks: automated station with precipitation discriminator hourly temp 21.8°C dewpoint 21.6°C
Conditions at:
KMKN (Comanche County-City, TX) observed 1115 UTC 25 August 2016
Temperature:
73.0 F° (23.0 C°)
Dewpoint:
not reported - refer to area weather report
Pressure:
30.07 Hg
Winds:
not reported
Visibility:
10.00
Ceiling:
at least 12,000 feet AGL
Clouds:
not reported - refer to area weather report
Remarks:
site is un-manned

Translated TAF for TAF for MKN is not available. Refer to local area forecast.
FBO's on the Field
FBO Company Facility Photos Services Transportation Aviation Fuel Prices: Prices include tax
Catering Weather Repair Courtesy Rental Type 100LL JetA JetA+ MOGAS 8087
 
Comanche County/City Airport

This FBO has not yet been rated
FS:Avfuel
Last Updated: Jul-22
Login to update fuel prices
SS:
Contact Comanche County/City AirportMore FBO Information
 
Add another FBO Facility Photos Catering Weather Repair Courtesy Rental Type 100LL JetA JetA+ MOGAS 8087
Services Transportation Aviation Fuel Prices: Prices include tax


model-print
model-print
model-print
model-print